sensor_id;sensor_type;location;lat;lon;timestamp;pressure;altitude;pressure_sealevel;temperature;humidity
35507;BME280;36461;52.018;21.036;2022-07-03T00:02:19;101022.72;;;17.65;86.76
35507;BME280;36461;52.018;21.036;2022-07-03T00:04:46;101017.07;;;17.64;86.86
35507;BME280;36461;52.018;21.036;2022-07-03T00:07:12;101014.75;;;17.67;87.03
35507;BME280;36461;52.018;21.036;2022-07-03T00:09:39;101010.51;;;17.64;86.89
35507;BME280;36461;52.018;21.036;2022-07-03T00:12:06;101010.59;;;17.63;86.99
35507;BME280;36461;52.018;21.036;2022-07-03T00:14:34;101009.84;;;17.60;86.95
35507;BME280;36461;52.018;21.036;2022-07-03T00:17:00;101003.72;;;17.60;86.99
35507;BME280;36461;52.018;21.036;2022-07-03T00:19:27;101002.97;;;17.58;86.75
35507;BME280;36461;52.018;21.036;2022-07-03T00:21:55;100996.94;;;17.56;86.69
35507;BME280;36461;52.018;21.036;2022-07-03T00:24:26;101002.66;;;17.55;86.58
35507;BME280;36461;52.018;21.036;2022-07-03T00:26:55;101004.81;;;17.56;86.60
35507;BME280;36461;52.018;21.036;2022-07-03T00:29:27;101007.91;;;17.55;86.57
35507;BME280;36461;52.018;21.036;2022-07-03T00:31:56;101003.11;;;17.55;86.61
35507;BME280;36461;52.018;21.036;2022-07-03T00:34:24;101008.27;;;17.56;86.72
35507;BME280;36461;52.018;21.036;2022-07-03T00:36:57;101003.80;;;17.58;86.65
35507;BME280;36461;52.018;21.036;2022-07-03T00:39:24;101009.53;;;17.58;86.35
35507;BME280;36461;52.018;21.036;2022-07-03T00:42:02;101005.64;;;17.56;86.27
35507;BME280;36461;52.018;21.036;2022-07-03T00:47:20;101004.89;;;17.54;86.30
35507;BME280;36461;52.018;21.036;2022-07-03T00:49:53;101001.88;;;17.53;86.25
35507;BME280;36461;52.018;21.036;2022-07-03T00:52:23;101002.19;;;17.56;86.43
35507;BME280;36461;52.018;21.036;2022-07-03T00:54:57;101002.58;;;17.57;86.33
35507;BME280;36461;52.018;21.036;2022-07-03T00:57:25;100993.92;;;17.55;86.37
35507;BME280;36461;52.018;21.036;2022-07-03T00:59:54;100997.72;;;17.58;86.53
35507;BME280;36461;52.018;21.036;2022-07-03T01:03:01;100992.77;;;17.60;86.54
35507;BME280;36461;52.018;21.036;2022-07-03T01:11:19;100994.00;;;17.62;86.63
35507;BME280;36461;52.018;21.036;2022-07-03T01:14:16;100986.21;;;17.60;86.50
35507;BME280;36461;52.018;21.036;2022-07-03T01:19:48;100973.39;;;17.54;86.69
35507;BME280;36461;52.018;21.036;2022-07-03T01:22:43;100973.92;;;17.52;86.66
35507;BME280;36461;52.018;21.036;2022-07-03T01:25:45;100975.88;;;17.49;86.73
35507;BME280;36461;52.018;21.036;2022-07-03T01:28:16;100978.28;;;17.44;86.85
35507;BME280;36461;52.018;21.036;2022-07-03T01:30:50;100969.23;;;17.41;86.95
35507;BME280;36461;52.018;21.036;2022-07-03T01:33:27;100970.19;;;17.40;87.15
35507;BME280;36461;52.018;21.036;2022-07-03T01:35:58;100971.02;;;17.41;87.15
35507;BME280;36461;52.018;21.036;2022-07-03T01:38:28;100975.95;;;17.38;87.03
35507;BME280;36461;52.018;21.036;2022-07-03T01:40:56;100975.17;;;17.36;87.10
35507;BME280;36461;52.018;21.036;2022-07-03T01:43:25;100971.71;;;17.36;87.14
35507;BME280;36461;52.018;21.036;2022-07-03T01:45:57;100976.21;;;17.34;87.08
35507;BME280;36461;52.018;21.036;2022-07-03T01:48:26;100972.88;;;17.30;87.12
35507;BME280;36461;52.018;21.036;2022-07-03T01:50:56;100965.93;;;17.29;87.15
35507;BME280;36461;52.018;21.036;2022-07-03T01:53:26;100961.16;;;17.28;87.20
35507;BME280;36461;52.018;21.036;2022-07-03T01:55:59;100963.39;;;17.27;87.08
35507;BME280;36461;52.018;21.036;2022-07-03T01:58:27;100961.30;;;17.25;87.03
35507;BME280;36461;52.018;21.036;2022-07-03T02:04:03;100965.17;;;17.27;87.02
35507;BME280;36461;52.018;21.036;2022-07-03T02:06:41;100959.98;;;17.25;86.91
35507;BME280;36461;52.018;21.036;2022-07-03T02:09:14;100957.08;;;17.23;87.29
35507;BME280;36461;52.018;21.036;2022-07-03T02:11:44;100959.23;;;17.23;87.54
35507;BME280;36461;52.018;21.036;2022-07-03T02:14:16;100954.59;;;17.20;87.63
35507;BME280;36461;52.018;21.036;2022-07-03T02:19:28;100958.77;;;17.15;87.60
35507;BME280;36461;52.018;21.036;2022-07-03T02:21:56;100951.98;;;17.11;87.59
35507;BME280;36461;52.018;21.036;2022-07-03T02:24:24;100949.45;;;17.09;87.58
35507;BME280;36461;52.018;21.036;2022-07-03T02:27:03;100953.07;;;17.07;87.53
35507;BME280;36461;52.018;21.036;2022-07-03T02:29:41;100949.66;;;17.05;87.62
35507;BME280;36461;52.018;21.036;2022-07-03T02:32:10;100953.28;;;17.02;87.61
35507;BME280;36461;52.018;21.036;2022-07-03T02:34:42;100945.98;;;17.00;87.78
35507;BME280;36461;52.018;21.036;2022-07-03T02:37:17;100949.04;;;17.00;87.73
35507;BME280;36461;52.018;21.036;2022-07-03T02:42:39;100950.75;;;17.01;87.96
35507;BME280;36461;52.018;21.036;2022-07-03T02:45:09;100951.89;;;17.04;87.98
35507;BME280;36461;52.018;21.036;2022-07-03T02:48:02;100950.05;;;17.06;88.04
35507;BME280;36461;52.018;21.036;2022-07-03T02:50:31;100948.35;;;17.05;87.92
35507;BME280;36461;52.018;21.036;2022-07-03T02:53:29;100946.64;;;17.04;87.77
35507;BME280;36461;52.018;21.036;2022-07-03T02:56:11;100945.34;;;17.04;87.82
35507;BME280;36461;52.018;21.036;2022-07-03T03:01:38;100944.42;;;17.14;87.94
35507;BME280;36461;52.018;21.036;2022-07-03T03:04:26;100945.33;;;17.21;87.94
35507;BME280;36461;52.018;21.036;2022-07-03T03:07:01;100950.36;;;17.26;87.79
35507;BME280;36461;52.018;21.036;2022-07-03T03:09:40;100951.89;;;17.30;87.74
35507;BME280;36461;52.018;21.036;2022-07-03T03:12:09;100950.19;;;17.38;87.70
35507;BME280;36461;52.018;21.036;2022-07-03T03:14:41;100944.22;;;17.43;87.55
35507;BME280;36461;52.018;21.036;2022-07-03T03:17:19;100938.83;;;17.46;87.39
35507;BME280;36461;52.018;21.036;2022-07-03T03:19:46;100936.20;;;17.46;86.88
35507;BME280;36461;52.018;21.036;2022-07-03T03:25:07;100925.48;;;17.42;86.29
35507;BME280;36461;52.018;21.036;2022-07-03T03:27:34;100929.33;;;17.35;85.95
35507;BME280;36461;52.018;21.036;2022-07-03T03:30:01;100935.05;;;17.25;85.65
35507;BME280;36461;52.018;21.036;2022-07-03T03:32:29;100927.69;;;17.16;85.54
35507;BME280;36461;52.018;21.036;2022-07-03T03:34:56;100925.20;;;17.13;85.50
35507;BME280;36461;52.018;21.036;2022-07-03T03:37:22;100925.84;;;17.09;85.41
35507;BME280;36461;52.018;21.036;2022-07-03T03:39:49;100932.00;;;17.08;85.28
35507;BME280;36461;52.018;21.036;2022-07-03T03:42:15;100935.23;;;17.05;84.98
35507;BME280;36461;52.018;21.036;2022-07-03T03:44:41;100933.22;;;17.01;84.81
35507;BME280;36461;52.018;21.036;2022-07-03T03:47:09;100931.23;;;16.98;84.82
35507;BME280;36461;52.018;21.036;2022-07-03T03:49:36;100923.38;;;16.98;84.73
35507;BME280;36461;52.018;21.036;2022-07-03T03:52:04;100928.70;;;16.96;84.54
35507;BME280;36461;52.018;21.036;2022-07-03T03:54:31;100930.01;;;16.96;84.45
35507;BME280;36461;52.018;21.036;2022-07-03T03:57:14;100927.39;;;16.96;84.38
35507;BME280;36461;52.018;21.036;2022-07-03T03:59:35;100926.44;;;16.97;84.32
35507;BME280;36461;52.018;21.036;2022-07-03T04:02:03;100929.53;;;16.97;84.08
35507;BME280;36461;52.018;21.036;2022-07-03T04:04:30;100926.52;;;16.96;83.91
35507;BME280;36461;52.018;21.036;2022-07-03T04:06:56;100922.59;;;16.96;83.72
35507;BME280;36461;52.018;21.036;2022-07-03T04:09:22;100929.92;;;16.98;83.65
35507;BME280;36461;52.018;21.036;2022-07-03T04:11:49;100929.77;;;17.01;83.51
35507;BME280;36461;52.018;21.036;2022-07-03T04:14:16;100927.92;;;17.03;83.35
35507;BME280;36461;52.018;21.036;2022-07-03T04:16:42;100907.47;;;17.01;83.15
35507;BME280;36461;52.018;21.036;2022-07-03T04:19:08;100907.47;;;17.01;83.15
35507;BME280;36461;52.018;21.036;2022-07-03T04:21:35;100928.29;;;17.55;83.79
35507;BME280;36461;52.018;21.036;2022-07-03T04:24:01;100918.76;;;19.55;88.71
35507;BME280;36461;52.018;21.036;2022-07-03T04:26:28;100920.70;;;22.30;86.27
35507;BME280;36461;52.018;21.036;2022-07-03T04:28:55;100921.23;;;24.63;83.10
35507;BME280;36461;52.018;21.036;2022-07-03T04:31:21;100916.95;;;27.09;80.08
35507;BME280;36461;52.018;21.036;2022-07-03T04:33:48;100920.37;;;29.25;74.34
35507;BME280;36461;52.018;21.036;2022-07-03T04:36:14;100928.45;;;30.48;68.28
35507;BME280;36461;52.018;21.036;2022-07-03T04:38:43;100918.28;;;31.81;64.99
35507;BME280;36461;52.018;21.036;2022-07-03T04:41:10;100923.34;;;32.53;61.02
35507;BME280;36461;52.018;21.036;2022-07-03T04:43:37;100930.45;;;30.95;56.03
35507;BME280;36461;52.018;21.036;2022-07-03T04:46:03;100934.72;;;28.98;54.95
35507;BME280;36461;52.018;21.036;2022-07-03T04:48:31;100931.94;;;27.20;54.18
35507;BME280;36461;52.018;21.036;2022-07-03T04:50:58;100935.88;;;25.83;54.60
35507;BME280;36461;52.018;21.036;2022-07-03T04:53:25;100935.00;;;24.52;55.58
35507;BME280;36461;52.018;21.036;2022-07-03T04:55:51;100932.50;;;24.01;56.70
35507;BME280;36461;52.018;21.036;2022-07-03T04:58:18;100923.70;;;23.83;57.83
35507;BME280;36461;52.018;21.036;2022-07-03T05:00:45;100926.48;;;23.31;57.32
35507;BME280;36461;52.018;21.036;2022-07-03T05:03:12;100924.79;;;22.47;57.70
35507;BME280;36461;52.018;21.036;2022-07-03T05:05:39;100928.16;;;21.88;58.72
35507;BME280;36461;52.018;21.036;2022-07-03T05:08:06;100933.09;;;21.48;59.53
35507;BME280;36461;52.018;21.036;2022-07-03T05:10:33;100933.72;;;21.13;60.22
35507;BME280;36461;52.018;21.036;2022-07-03T05:13:00;100929.86;;;20.78;60.41
35507;BME280;36461;52.018;21.036;2022-07-03T05:15:28;100935.35;;;20.75;62.00
35507;BME280;36461;52.018;21.036;2022-07-03T05:17:54;100932.05;;;21.25;62.50
35507;BME280;36461;52.018;21.036;2022-07-03T05:20:21;100925.32;;;21.01;61.71
35507;BME280;36461;52.018;21.036;2022-07-03T05:22:52;100934.80;;;20.70;61.46
35507;BME280;36461;52.018;21.036;2022-07-03T05:25:19;100930.30;;;20.38;61.85
35507;BME280;36461;52.018;21.036;2022-07-03T05:27:47;100933.28;;;20.11;62.17
35507;BME280;36461;52.018;21.036;2022-07-03T05:30:16;100931.55;;;19.90;62.68
35507;BME280;36461;52.018;21.036;2022-07-03T05:32:43;100928.92;;;19.90;63.66
35507;BME280;36461;52.018;21.036;2022-07-03T05:35:10;100924.20;;;20.57;63.77
35507;BME280;36461;52.018;21.036;2022-07-03T05:37:37;100927.20;;;20.99;62.98
35507;BME280;36461;52.018;21.036;2022-07-03T05:40:04;100922.27;;;20.87;62.04
35507;BME280;36461;52.018;21.036;2022-07-03T05:42:32;100923.78;;;20.63;61.68
35507;BME280;36461;52.018;21.036;2022-07-03T05:45:00;100922.70;;;20.33;61.20
35507;BME280;36461;52.018;21.036;2022-07-03T05:47:28;100927.10;;;20.05;61.53
35507;BME280;36461;52.018;21.036;2022-07-03T05:49:55;100924.30;;;19.87;61.80
35507;BME280;36461;52.018;21.036;2022-07-03T05:52:21;100931.15;;;19.75;62.19
35507;BME280;36461;52.018;21.036;2022-07-03T05:54:48;100936.80;;;19.61;62.01
35507;BME280;36461;52.018;21.036;2022-07-03T05:57:15;100936.79;;;19.47;61.61
35507;BME280;36461;52.018;21.036;2022-07-03T05:59:41;100930.95;;;19.35;62.16
35507;BME280;36461;52.018;21.036;2022-07-03T06:02:07;100926.15;;;19.27;62.20
35507;BME280;36461;52.018;21.036;2022-07-03T06:04:34;100922.88;;;19.23;62.42
35507;BME280;36461;52.018;21.036;2022-07-03T06:07:01;100925.61;;;19.22;62.61
35507;BME280;36461;52.018;21.036;2022-07-03T06:09:29;100926.98;;;19.20;62.92
35507;BME280;36461;52.018;21.036;2022-07-03T06:11:56;100928.50;;;19.17;63.06
35507;BME280;36461;52.018;21.036;2022-07-03T06:14:22;100936.39;;;19.17;63.14
35507;BME280;36461;52.018;21.036;2022-07-03T06:16:49;100940.23;;;19.19;62.78
35507;BME280;36461;52.018;21.036;2022-07-03T06:19:16;100935.55;;;19.17;63.14
35507;BME280;36461;52.018;21.036;2022-07-03T06:21:42;100934.14;;;19.18;63.12
35507;BME280;36461;52.018;21.036;2022-07-03T06:24:10;100935.10;;;19.24;62.77
35507;BME280;36461;52.018;21.036;2022-07-03T06:26:37;100936.42;;;19.24;62.93
35507;BME280;36461;52.018;21.036;2022-07-03T06:29:03;100946.38;;;19.26;62.87
35507;BME280;36461;52.018;21.036;2022-07-03T06:31:30;100936.67;;;19.27;62.85
35507;BME280;36461;52.018;21.036;2022-07-03T06:33:57;100940.66;;;19.34;62.86
35507;BME280;36461;52.018;21.036;2022-07-03T06:36:24;100938.11;;;19.40;62.79
35507;BME280;36461;52.018;21.036;2022-07-03T06:38:50;100936.98;;;19.44;62.81
35507;BME280;36461;52.018;21.036;2022-07-03T06:41:17;100941.98;;;19.49;62.89
35507;BME280;36461;52.018;21.036;2022-07-03T06:43:43;100935.31;;;19.50;62.37
35507;BME280;36461;52.018;21.036;2022-07-03T06:46:09;100937.00;;;19.51;62.34
35507;BME280;36461;52.018;21.036;2022-07-03T06:48:36;100939.99;;;19.52;62.29
35507;BME280;36461;52.018;21.036;2022-07-03T06:51:02;100934.46;;;19.57;62.19
35507;BME280;36461;52.018;21.036;2022-07-03T06:53:28;100934.55;;;19.62;62.31
35507;BME280;36461;52.018;21.036;2022-07-03T06:55:54;100936.05;;;19.67;62.23
35507;BME280;36461;52.018;21.036;2022-07-03T06:58:21;100935.11;;;19.68;61.58
35507;BME280;36461;52.018;21.036;2022-07-03T07:00:47;100931.06;;;19.69;61.62
35507;BME280;36461;52.018;21.036;2022-07-03T07:03:15;100927.02;;;19.71;61.53
35507;BME280;36461;52.018;21.036;2022-07-03T07:05:41;100913.64;;;19.74;61.63
35507;BME280;36461;52.018;21.036;2022-07-03T07:08:07;100925.23;;;19.78;61.64
35507;BME280;36461;52.018;21.036;2022-07-03T07:10:35;100913.59;;;19.83;61.40
35507;BME280;36461;52.018;21.036;2022-07-03T07:13:02;100902.39;;;19.86;61.10
35507;BME280;36461;52.018;21.036;2022-07-03T07:15:28;100902.92;;;19.91;61.28
35507;BME280;36461;52.018;21.036;2022-07-03T07:17:54;100899.91;;;19.98;61.16
35507;BME280;36461;52.018;21.036;2022-07-03T07:20:21;100889.16;;;20.01;60.90
35507;BME280;36461;52.018;21.036;2022-07-03T07:22:47;100893.77;;;20.04;60.28
35507;BME280;36461;52.018;21.036;2022-07-03T07:25:16;100892.45;;;20.04;60.27
35507;BME280;36461;52.018;21.036;2022-07-03T07:27:43;100896.69;;;20.07;60.28
35507;BME280;36461;52.018;21.036;2022-07-03T07:30:10;100882.37;;;20.11;60.35
35507;BME280;36461;52.018;21.036;2022-07-03T07:32:36;100879.80;;;20.17;60.31
35507;BME280;36461;52.018;21.036;2022-07-03T07:35:04;100871.50;;;20.23;59.88
35507;BME280;36461;52.018;21.036;2022-07-03T07:37:31;100873.55;;;20.25;59.15
35507;BME280;36461;52.018;21.036;2022-07-03T07:39:58;100870.19;;;20.23;59.15
35507;BME280;36461;52.018;21.036;2022-07-03T07:42:24;100867.83;;;20.25;58.96
35507;BME280;36461;52.018;21.036;2022-07-03T07:44:51;100871.40;;;20.24;58.35
35507;BME280;36461;52.018;21.036;2022-07-03T07:47:17;100871.88;;;20.24;58.31
35507;BME280;36461;52.018;21.036;2022-07-03T07:49:44;100871.57;;;20.28;58.56
35507;BME280;36461;52.018;21.036;2022-07-03T07:52:10;100870.31;;;20.34;58.16
35507;BME280;36461;52.018;21.036;2022-07-03T07:54:36;100878.32;;;20.40;58.63
35507;BME280;36461;52.018;21.036;2022-07-03T07:57:03;100873.11;;;20.45;57.82
35507;BME280;36461;52.018;21.036;2022-07-03T07:59:31;100861.63;;;20.47;57.57
35507;BME280;36461;52.018;21.036;2022-07-03T08:01:57;100861.68;;;20.52;57.62
35507;BME280;36461;52.018;21.036;2022-07-03T08:04:42;100871.34;;;20.59;58.44
35507;BME280;36461;52.018;21.036;2022-07-03T08:07:27;100866.80;;;20.61;57.31
35507;BME280;36461;52.018;21.036;2022-07-03T08:09:54;100871.30;;;20.66;57.11
35507;BME280;36461;52.018;21.036;2022-07-03T08:12:21;100868.96;;;20.69;56.53
35507;BME280;36461;52.018;21.036;2022-07-03T08:14:47;100862.75;;;20.70;56.32
35507;BME280;36461;52.018;21.036;2022-07-03T08:17:14;100862.91;;;20.74;56.75
35507;BME280;36461;52.018;21.036;2022-07-03T08:19:40;100865.22;;;20.78;55.95
35507;BME280;36461;52.018;21.036;2022-07-03T08:22:07;100869.72;;;20.84;55.91
35507;BME280;36461;52.018;21.036;2022-07-03T08:24:33;100863.39;;;20.86;55.80
35507;BME280;36461;52.018;21.036;2022-07-03T08:27:00;100857.11;;;20.94;56.25
35507;BME280;36461;52.018;21.036;2022-07-03T08:29:26;100857.42;;;21.03;55.79
35507;BME280;36461;52.018;21.036;2022-07-03T08:31:53;100853.12;;;21.02;55.41
35507;BME280;36461;52.018;21.036;2022-07-03T08:34:20;100848.45;;;21.05;55.74
35507;BME280;36461;52.018;21.036;2022-07-03T08:36:47;100841.17;;;21.09;55.56
35507;BME280;36461;52.018;21.036;2022-07-03T08:39:13;100846.45;;;21.09;55.00
35507;BME280;36461;52.018;21.036;2022-07-03T08:41:40;100848.26;;;21.08;55.38
35507;BME280;36461;52.018;21.036;2022-07-03T08:44:09;100839.33;;;21.17;55.14
35507;BME280;36461;52.018;21.036;2022-07-03T08:46:38;100840.20;;;21.23;55.44
35507;BME280;36461;52.018;21.036;2022-07-03T08:49:06;100835.93;;;21.27;55.06
35507;BME280;36461;52.018;21.036;2022-07-03T08:51:34;100833.59;;;21.36;55.71
35507;BME280;36461;52.018;21.036;2022-07-03T08:54:02;100829.36;;;21.46;55.29
35507;BME280;36461;52.018;21.036;2022-07-03T08:56:31;100828.64;;;21.50;54.92
35507;BME280;36461;52.018;21.036;2022-07-03T08:58:58;100834.97;;;21.54;54.46
35507;BME280;36461;52.018;21.036;2022-07-03T09:01:27;100834.73;;;21.57;54.98
35507;BME280;36461;52.018;21.036;2022-07-03T09:03:56;100829.73;;;21.66;55.11
35507;BME280;36461;52.018;21.036;2022-07-03T09:06:25;100827.88;;;21.73;54.68
35507;BME280;36461;52.018;21.036;2022-07-03T09:08:55;100826.58;;;21.79;54.56
35507;BME280;36461;52.018;21.036;2022-07-03T09:11:22;100825.54;;;21.87;54.51
35507;BME280;36461;52.018;21.036;2022-07-03T09:13:49;100828.45;;;21.95;54.68
35507;BME280;36461;52.018;21.036;2022-07-03T09:16:16;100830.03;;;21.98;53.92
35507;BME280;36461;52.018;21.036;2022-07-03T09:18:44;100828.77;;;22.04;54.00
35507;BME280;36461;52.018;21.036;2022-07-03T09:21:11;100831.55;;;22.08;53.17
35507;BME280;36461;52.018;21.036;2022-07-03T09:23:40;100822.75;;;22.07;52.95
35507;BME280;36461;52.018;21.036;2022-07-03T09:26:18;100825.14;;;22.05;52.89
35507;BME280;36461;52.018;21.036;2022-07-03T09:28:53;100828.30;;;22.10;52.56
35507;BME280;36461;52.018;21.036;2022-07-03T09:31:28;100826.14;;;22.09;52.23
35507;BME280;36461;52.018;21.036;2022-07-03T09:33:56;100812.58;;;22.20;52.58
35507;BME280;36461;52.018;21.036;2022-07-03T09:36:43;100813.59;;;22.30;52.38
35507;BME280;36461;52.018;21.036;2022-07-03T09:39:22;100814.13;;;22.41;51.87
35507;BME280;36461;52.018;21.036;2022-07-03T09:41:56;100816.08;;;22.44;51.21
35507;BME280;36461;52.018;21.036;2022-07-03T09:44:44;100820.67;;;22.48;51.40
35507;BME280;36461;52.018;21.036;2022-07-03T09:47:22;100811.78;;;22.55;50.92
35507;BME280;36461;52.018;21.036;2022-07-03T09:52:40;100806.87;;;22.73;51.20
35507;BME280;36461;52.018;21.036;2022-07-03T10:00:23;100812.53;;;22.85;50.58
35507;BME280;36461;52.018;21.036;2022-07-03T10:02:56;100802.81;;;22.91;50.63
35507;BME280;36461;52.018;21.036;2022-07-03T10:05:44;100813.64;;;23.00;50.33
35507;BME280;36461;52.018;21.036;2022-07-03T10:08:09;100803.17;;;23.04;50.32
35507;BME280;36461;52.018;21.036;2022-07-03T10:10:40;100800.39;;;23.05;50.48
35507;BME280;36461;52.018;21.036;2022-07-03T10:13:08;100797.16;;;23.07;49.55
35507;BME280;36461;52.018;21.036;2022-07-03T10:15:36;100791.38;;;23.08;50.07
35507;BME280;36461;52.018;21.036;2022-07-03T10:18:06;100789.94;;;23.15;49.96
35507;BME280;36461;52.018;21.036;2022-07-03T10:20:41;100797.54;;;23.20;49.42
35507;BME280;36461;52.018;21.036;2022-07-03T10:23:12;100790.80;;;23.21;49.36
35507;BME280;36461;52.018;21.036;2022-07-03T10:25:43;100782.35;;;23.22;49.43
35507;BME280;36461;52.018;21.036;2022-07-03T10:28:12;100786.11;;;23.25;49.07
35507;BME280;36461;52.018;21.036;2022-07-03T10:30:42;100783.58;;;23.23;48.79
35507;BME280;36461;52.018;21.036;2022-07-03T10:33:08;100779.24;;;23.22;49.28
35507;BME280;36461;52.018;21.036;2022-07-03T10:35:40;100768.39;;;23.25;49.04
35507;BME280;36461;52.018;21.036;2022-07-03T10:38:37;100773.58;;;23.33;49.26
35507;BME280;36461;52.018;21.036;2022-07-03T10:41:28;100768.27;;;23.38;48.90
35507;BME280;36461;52.018;21.036;2022-07-03T10:44:19;100784.16;;;23.38;48.82
35507;BME280;36461;52.018;21.036;2022-07-03T10:46:54;100771.14;;;23.35;49.02
35507;BME280;36461;52.018;21.036;2022-07-03T10:49:21;100769.22;;;23.37;48.56
35507;BME280;36461;52.018;21.036;2022-07-03T10:52:00;100764.16;;;23.40;48.79
35507;BME280;36461;52.018;21.036;2022-07-03T10:54:33;100758.61;;;23.43;48.51
35507;BME280;36461;52.018;21.036;2022-07-03T10:57:07;100750.77;;;23.47;48.89
35507;BME280;36461;52.018;21.036;2022-07-03T11:02:33;100743.27;;;23.63;49.36
35507;BME280;36461;52.018;21.036;2022-07-03T11:05:10;100742.72;;;23.75;49.26
35507;BME280;36461;52.018;21.036;2022-07-03T11:13:08;100734.88;;;23.85;48.45
35507;BME280;36461;52.018;21.036;2022-07-03T11:15:49;100733.19;;;23.90;48.61
35507;BME280;36461;52.018;21.036;2022-07-03T11:18:26;100735.70;;;23.97;48.93
35507;BME280;36461;52.018;21.036;2022-07-03T11:21:10;100727.48;;;24.00;48.65
35507;BME280;36461;52.018;21.036;2022-07-03T11:23:57;100722.88;;;24.02;48.86
35507;BME280;36461;52.018;21.036;2022-07-03T11:26:24;100728.64;;;24.07;48.29
35507;BME280;36461;52.018;21.036;2022-07-03T11:28:52;100730.69;;;24.09;48.59
35507;BME280;36461;52.018;21.036;2022-07-03T11:31:20;100717.66;;;24.06;47.78
35507;BME280;36461;52.018;21.036;2022-07-03T11:36:29;100720.04;;;24.15;48.55
35507;BME280;36461;52.018;21.036;2022-07-03T11:44:09;100721.92;;;24.40;48.20
35507;BME280;36461;52.018;21.036;2022-07-03T11:46:38;100719.72;;;24.45;47.90
35507;BME280;36461;52.018;21.036;2022-07-03T11:49:10;100719.89;;;24.53;48.33
35507;BME280;36461;52.018;21.036;2022-07-03T11:52:02;100708.27;;;24.66;48.36
35507;BME280;36461;52.018;21.036;2022-07-03T11:54:31;100706.84;;;24.77;48.60
35507;BME280;36461;52.018;21.036;2022-07-03T11:57:02;100708.77;;;24.90;48.94
35507;BME280;36461;52.018;21.036;2022-07-03T11:59:29;100715.71;;;24.97;48.09
35507;BME280;36461;52.018;21.036;2022-07-03T12:02:01;100704.59;;;24.98;48.07
35507;BME280;36461;52.018;21.036;2022-07-03T12:04:29;100701.90;;;25.03;48.63
35507;BME280;36461;52.018;21.036;2022-07-03T12:06:58;100699.26;;;25.13;49.17
35507;BME280;36461;52.018;21.036;2022-07-03T12:09:29;100697.72;;;25.20;47.92
35507;BME280;36461;52.018;21.036;2022-07-03T12:14:41;100690.65;;;25.15;47.60
35507;BME280;36461;52.018;21.036;2022-07-03T12:17:20;100693.48;;;25.23;48.02
35507;BME280;36461;52.018;21.036;2022-07-03T12:19:59;100693.63;;;25.32;47.98
35507;BME280;36461;52.018;21.036;2022-07-03T12:22:31;100688.64;;;25.38;47.98
35507;BME280;36461;52.018;21.036;2022-07-03T12:25:02;100687.52;;;25.51;47.36
35507;BME280;36461;52.018;21.036;2022-07-03T12:27:38;100683.66;;;25.59;47.52
35507;BME280;36461;52.018;21.036;2022-07-03T12:30:12;100689.03;;;25.73;47.69
35507;BME280;36461;52.018;21.036;2022-07-03T12:32:41;100683.88;;;25.81;47.42
35507;BME280;36461;52.018;21.036;2022-07-03T12:35:08;100690.53;;;25.81;47.17
35507;BME280;36461;52.018;21.036;2022-07-03T12:37:37;100682.06;;;25.72;47.17
35507;BME280;36461;52.018;21.036;2022-07-03T12:40:08;100688.14;;;25.68;47.43
35507;BME280;36461;52.018;21.036;2022-07-03T12:42:50;100679.32;;;25.77;47.02
35507;BME280;36461;52.018;21.036;2022-07-03T12:45:23;100679.25;;;26.03;46.83
35507;BME280;36461;52.018;21.036;2022-07-03T12:48:04;100680.56;;;26.36;47.06
35507;BME280;36461;52.018;21.036;2022-07-03T12:50:48;100680.63;;;26.68;47.05
35507;BME280;36461;52.018;21.036;2022-07-03T12:53:29;100686.92;;;26.91;46.42
35507;BME280;36461;52.018;21.036;2022-07-03T12:56:07;100681.05;;;27.01;45.65
35507;BME280;36461;52.018;21.036;2022-07-03T12:58:36;100673.25;;;27.04;45.40
35507;BME280;36461;52.018;21.036;2022-07-03T13:01:28;100677.36;;;26.98;45.71
35507;BME280;36461;52.018;21.036;2022-07-03T13:04:04;100678.88;;;26.87;45.76
35507;BME280;36461;52.018;21.036;2022-07-03T13:06:34;100681.63;;;26.67;46.17
35507;BME280;36461;52.018;21.036;2022-07-03T13:09:03;100678.99;;;26.57;46.07
35507;BME280;36461;52.018;21.036;2022-07-03T13:11:34;100664.66;;;26.54;45.78
35507;BME280;36461;52.018;21.036;2022-07-03T13:14:15;100671.11;;;26.52;46.16
35507;BME280;36461;52.018;21.036;2022-07-03T13:16:45;100662.69;;;26.56;46.46
35507;BME280;36461;52.018;21.036;2022-07-03T13:19:16;100665.36;;;26.56;47.08
35507;BME280;36461;52.018;21.036;2022-07-03T13:21:45;100664.09;;;26.51;47.99
35507;BME280;36461;52.018;21.036;2022-07-03T13:24:13;100656.88;;;26.33;46.47
35507;BME280;36461;52.018;21.036;2022-07-03T13:26:42;100656.47;;;26.28;46.48
35507;BME280;36461;52.018;21.036;2022-07-03T13:29:09;100658.14;;;26.15;46.46
35507;BME280;36461;52.018;21.036;2022-07-03T13:31:36;100654.04;;;26.07;46.60
35507;BME280;36461;52.018;21.036;2022-07-03T13:34:03;100646.59;;;26.01;46.61
35507;BME280;36461;52.018;21.036;2022-07-03T13:36:31;100641.13;;;26.02;47.03
35507;BME280;36461;52.018;21.036;2022-07-03T13:38:59;100638.70;;;26.05;47.46
35507;BME280;36461;52.018;21.036;2022-07-03T13:41:26;100635.83;;;26.12;47.71
35507;BME280;36461;52.018;21.036;2022-07-03T13:43:53;100637.27;;;26.20;47.63
35507;BME280;36461;52.018;21.036;2022-07-03T13:46:22;100634.46;;;26.36;48.13
35507;BME280;36461;52.018;21.036;2022-07-03T13:48:50;100637.73;;;26.43;48.07
35507;BME280;36461;52.018;21.036;2022-07-03T13:51:18;100629.95;;;26.46;47.30